PWSweather.com
Personal Weather Stations
Station Observations
KNVELKO7
Elko, NV 89801

Elko, NV 89801

Lat: 40.963233, Lon: -115.592836

Elevation: 5230

Station Type: WS-2812

Latest ConditionsUpdated 4:21:17 PM PST Sunday, Nov 19, 2017
Currently Today's Max Today's Min Today's Average
Temperature 38.2°F3.4°C 46.4°F8.0°C 12.2°F-11.0°C 27.0°F-2.8°C
Dew Point 25.5°F-3.6°C 34.5°F1.4°C 7.7°F-13.5°C 19.9°F-6.7°C
Winds Calm Calm 6.3 mph ENE10.1 kmh ENE - 1.9 mph 3.1 kmh
Wind Gusts 0.7 mph1.1 kmh 6.5 mph10.5 kmh - -
Humidity 60% 86% 56% 75%
Pressure 30.09 in1019.0 mb 30.26 in1024.7 mb 30.09 in1019.0 mb -
Hour Temp Dew Point Humidity Winds Wind Gusts Pressure Precip Precip Rate Daily Precip Total
04:21 PM 38.2°F3.4°C 25.5°F-3.6°C 60% Calm Calm 0.7 mph1.1 kmh 30.09 in1019.0 mb 0.00 in0.0 mm 0.00 in0.0 mm 0.00 in0.0 mm
04:16 PM 38.5°F3.6°C 25.8°F-3.4°C 60% 0.6 mph 1.0 kmh 0.7 mph1.1 kmh 30.10 in1019.3 mb 0.00 in0.0 mm 0.00 in0.0 mm 0.00 in0.0 mm
04:11 PM 38.7°F3.7°C 25.6°F-3.6°C 59% Calm Calm 0.4 mph0.6 kmh 30.09 in1019.0 mb 0.00 in0.0 mm 0.00 in0.0 mm 0.00 in0.0 mm
04:06 PM 39.1°F3.9°C 25.8°F-3.4°C 59% Calm Calm 0.4 mph0.6 kmh 30.09 in1019.0 mb 0.00 in0.0 mm 0.00 in0.0 mm 0.00 in0.0 mm
04:01 PM 39.2°F4.0°C 26.0°F-3.3°C 59% Calm Calm 0.4 mph0.6 kmh 30.09 in1019.0 mb 0.00 in0.0 mm 0.00 in0.0 mm 0.00 in0.0 mm
03:55 PM 39.6°F4.2°C 26.4°F-3.1°C 59% 0.2 mph ENE0.3 kmh ENE 0.2 mph0.3 kmh 30.09 in1019.0 mb 0.00 in0.0 mm 0.00 in0.0 mm 0.00 in0.0 mm
03:50 PM 40.0°F4.4°C 26.7°F-2.9°C 59% Calm Calm 1.1 mph1.8 kmh 30.09 in1019.0 mb 0.00 in0.0 mm 0.00 in0.0 mm 0.00 in0.0 mm
03:45 PM 40.0°F4.4°C 26.7°F-2.9°C 59% 0.4 mph ENE0.6 kmh ENE 2.0 mph3.2 kmh 30.09 in1019.0 mb 0.00 in0.0 mm 0.00 in0.0 mm 0.00 in0.0 mm
03:41 PM 40.1°F4.5°C 26.9°F-2.8°C 59% 1.2 mph ENE1.9 kmh ENE 2.9 mph4.7 kmh 30.09 in1019.0 mb 0.00 in0.0 mm 0.00 in0.0 mm 0.00 in0.0 mm
03:36 PM 40.3°F4.6°C 26.6°F-3.0°C 58% 2.5 mph ENE4.0 kmh ENE 4.7 mph7.6 kmh 30.09 in1019.0 mb 0.00 in0.0 mm 0.00 in0.0 mm 0.00 in0.0 mm
03:31 PM 40.7°F4.8°C 27.0°F-2.8°C 58% 3.3 mph ENE5.3 kmh ENE 4.7 mph7.6 kmh 30.09 in1019.0 mb 0.00 in0.0 mm 0.00 in0.0 mm 0.00 in0.0 mm
03:26 PM 41.0°F5.0°C 26.9°F-2.8°C 57% 3.7 mph ENE6.0 kmh ENE 4.0 mph6.4 kmh 30.09 in1019.0 mb 0.00 in0.0 mm 0.00 in0.0 mm 0.00 in0.0 mm
03:21 PM 41.4°F5.2°C 27.3°F-2.6°C 57% 3.4 mph NE5.5 kmh NE 4.0 mph6.4 kmh 30.09 in1019.0 mb 0.00 in0.0 mm 0.00 in0.0 mm 0.00 in0.0 mm
03:16 PM 42.3°F5.7°C 28.1°F-2.2°C 57% 3.2 mph NE5.1 kmh NE 3.4 mph5.5 kmh 30.10 in1019.3 mb 0.00 in0.0 mm 0.00 in0.0 mm 0.00 in0.0 mm
03:11 PM 43.0°F6.1°C 29.2°F-1.6°C 58% 2.0 mph NE3.2 kmh NE 2.9 mph4.7 kmh 30.10 in1019.3 mb 0.00 in0.0 mm 0.00 in0.0 mm 0.00 in0.0 mm
03:06 PM 43.4°F6.3°C 29.1°F-1.6°C 57% 1.5 mph NE2.4 kmh NE 3.1 mph5.0 kmh 30.10 in1019.3 mb 0.00 in0.0 mm 0.00 in0.0 mm 0.00 in0.0 mm
03:01 PM 43.6°F6.4°C 29.3°F-1.5°C 57% 1.9 mph NE3.1 kmh NE 3.8 mph6.1 kmh 30.10 in1019.3 mb 0.00 in0.0 mm 0.00 in0.0 mm 0.00 in0.0 mm
02:55 PM 43.7°F6.5°C 29.0°F-1.7°C 56% 3.3 mph ENE5.3 kmh ENE 4.0 mph6.4 kmh 30.10 in1019.3 mb 0.00 in0.0 mm 0.00 in0.0 mm 0.00 in0.0 mm
02:50 PM 44.1°F6.7°C 29.8°F-1.2°C 57% 2.3 mph E3.7 kmh E 4.0 mph6.4 kmh 30.10 in1019.3 mb 0.00 in0.0 mm 0.00 in0.0 mm 0.00 in0.0 mm
02:45 PM 44.3°F6.8°C 30.0°F-1.1°C 57% 2.2 mph E3.5 kmh E 3.4 mph5.5 kmh 30.10 in1019.3 mb 0.00 in0.0 mm 0.00 in0.0 mm 0.00 in0.0 mm
02:40 PM 44.3°F6.8°C 29.5°F-1.4°C 56% 0.8 mph E1.3 kmh E 4.0 mph6.4 kmh 30.10 in1019.3 mb 0.00 in0.0 mm 0.00 in0.0 mm 0.00 in0.0 mm
02:35 PM 44.6°F7.0°C 29.9°F-1.2°C 56% 3.6 mph E5.8 kmh E 4.0 mph6.4 kmh 30.11 in1019.6 mb 0.00 in0.0 mm 0.00 in0.0 mm 0.00 in0.0 mm
02:30 PM 45.0°F7.2°C 30.7°F-0.7°C 57% 1.1 mph E1.8 kmh E 2.9 mph4.7 kmh 30.11 in1019.6 mb 0.00 in0.0 mm 0.00 in0.0 mm 0.00 in0.0 mm
02:25 PM 45.0°F7.2°C 30.7°F-0.7°C 57% 1.3 mph ENE2.1 kmh ENE 3.6 mph5.8 kmh 30.11 in1019.6 mb 0.00 in0.0 mm 0.00 in0.0 mm 0.00 in0.0 mm
02:20 PM 45.0°F7.2°C 30.7°F-0.7°C 57% 1.8 mph E2.9 kmh E 4.5 mph7.2 kmh 30.11 in1019.6 mb 0.00 in0.0 mm 0.00 in0.0 mm 0.00 in0.0 mm
02:15 PM 45.4°F7.4°C 31.0°F-0.6°C 57% 2.7 mph NE4.3 kmh NE 4.9 mph7.9 kmh 30.11 in1019.6 mb 0.00 in0.0 mm 0.00 in0.0 mm 0.00 in0.0 mm
02:10 PM 46.1°F7.8°C 31.6°F-0.2°C 57% 3.2 mph ENE5.1 kmh ENE 4.9 mph7.9 kmh 30.11 in1019.6 mb 0.00 in0.0 mm 0.00 in0.0 mm 0.00 in0.0 mm
02:05 PM 46.4°F8.0°C 32.4°F0.2°C 58% 2.3 mph ENE3.7 kmh ENE 4.3 mph6.9 kmh 30.12 in1020.0 mb 0.00 in0.0 mm 0.00 in0.0 mm 0.00 in0.0 mm
02:00 PM 46.3°F7.9°C 32.7°F0.4°C 59% 2.8 mph ESE4.5 kmh ESE 4.3 mph6.9 kmh 30.12 in1020.0 mb 0.00 in0.0 mm 0.00 in0.0 mm 0.00 in0.0 mm
01:55 PM 46.4°F8.0°C 32.9°F0.5°C 59% 3.0 mph ESE4.8 kmh ESE 4.0 mph6.4 kmh 30.12 in1020.0 mb 0.00 in0.0 mm 0.00 in0.0 mm 0.00 in0.0 mm
01:50 PM 46.4°F8.0°C 32.9°F0.5°C 59% 1.5 mph ESE2.4 kmh ESE 4.0 mph6.4 kmh 30.12 in1020.0 mb 0.00 in0.0 mm 0.00 in0.0 mm 0.00 in0.0 mm
01:45 PM 46.4°F8.0°C 33.3°F0.7°C 60% 2.5 mph ESE4.0 kmh ESE 4.0 mph6.4 kmh 30.12 in1020.0 mb 0.00 in0.0 mm 0.00 in0.0 mm 0.00 in0.0 mm
01:40 PM 46.3°F7.9°C 33.1°F0.6°C 60% 3.5 mph E5.6 kmh E 4.0 mph6.4 kmh 30.13 in1020.3 mb 0.00 in0.0 mm 0.00 in0.0 mm 0.00 in0.0 mm
01:35 PM 46.1°F7.8°C 32.9°F0.5°C 60% 2.0 mph ESE3.2 kmh ESE 4.0 mph6.4 kmh 30.12 in1020.0 mb 0.00 in0.0 mm 0.00 in0.0 mm 0.00 in0.0 mm
01:30 PM 45.7°F7.6°C 32.7°F0.4°C 60% 3.3 mph ESE5.3 kmh ESE 4.0 mph6.4 kmh 30.12 in1020.0 mb 0.00 in0.0 mm 0.00 in0.0 mm 0.00 in0.0 mm
01:25 PM 45.5°F7.5°C 32.5°F0.3°C 60% 3.4 mph E5.5 kmh E 4.9 mph7.9 kmh 30.13 in1020.3 mb 0.00 in0.0 mm 0.00 in0.0 mm 0.00 in0.0 mm
01:20 PM 45.2°F7.3°C 32.1°F0.1°C 60% 4.3 mph ENE6.9 kmh ENE 5.4 mph8.7 kmh 30.12 in1020.0 mb 0.00 in0.0 mm 0.00 in0.0 mm 0.00 in0.0 mm
01:15 PM 45.0°F7.2°C 32.1°F0.1°C 60% 2.3 mph E3.7 kmh E 5.4 mph8.7 kmh 30.13 in1020.3 mb 0.00 in0.0 mm 0.00 in0.0 mm 0.00 in0.0 mm
01:10 PM 44.6°F7.0°C 32.0°F0.0°C 61% 3.5 mph E5.6 kmh E 6.3 mph10.1 kmh 30.13 in1020.3 mb 0.00 in0.0 mm 0.00 in0.0 mm 0.00 in0.0 mm
01:05 PM 44.5°F6.9°C 30.6°F-0.8°C 58% 3.2 mph E5.1 kmh E 6.5 mph10.5 kmh 30.13 in1020.3 mb 0.00 in0.0 mm 0.00 in0.0 mm 0.00 in0.0 mm
01:00 PM 44.6°F7.0°C 30.8°F-0.7°C 58% 3.9 mph ENE6.3 kmh ENE 6.5 mph10.5 kmh 30.13 in1020.3 mb 0.00 in0.0 mm 0.00 in0.0 mm 0.00 in0.0 mm
12:55 PM 45.0°F7.2°C 31.6°F-0.2°C 59% 6.3 mph ENE10.1 kmh ENE 6.5 mph10.5 kmh 30.13 in1020.3 mb 0.00 in0.0 mm 0.00 in0.0 mm 0.00 in0.0 mm
12:50 PM 45.4°F7.4°C 32.3°F0.2°C 60% 4.6 mph E7.4 kmh E 5.8 mph9.3 kmh 30.13 in1020.3 mb 0.00 in0.0 mm 0.00 in0.0 mm 0.00 in0.0 mm
12:45 PM 45.5°F7.5°C 33.3°F0.7°C 62% 2.9 mph ENE4.7 kmh ENE 5.8 mph9.3 kmh 30.14 in1020.7 mb 0.00 in0.0 mm 0.00 in0.0 mm 0.00 in0.0 mm
12:40 PM 45.4°F7.4°C 33.1°F0.6°C 62% 3.5 mph E5.6 kmh E 4.0 mph6.4 kmh 30.14 in1020.7 mb 0.00 in0.0 mm 0.00 in0.0 mm 0.00 in0.0 mm
12:35 PM 45.0°F7.2°C 32.8°F0.4°C 62% 2.6 mph NE4.2 kmh NE 4.7 mph7.6 kmh 30.15 in1021.0 mb 0.00 in0.0 mm 0.00 in0.0 mm 0.00 in0.0 mm
12:30 PM 45.0°F7.2°C 33.1°F0.6°C 63% 4.1 mph ENE6.6 kmh ENE 4.7 mph7.6 kmh 30.14 in1020.7 mb 0.00 in0.0 mm 0.00 in0.0 mm 0.00 in0.0 mm
12:25 PM 45.2°F7.3°C 34.5°F1.4°C 66% 1.9 mph NE3.1 kmh NE 3.4 mph5.5 kmh 30.15 in1021.0 mb 0.00 in0.0 mm 0.00 in0.0 mm 0.00 in0.0 mm
12:20 PM 45.2°F7.3°C 34.5°F1.4°C 66% 2.6 mph ENE4.2 kmh ENE 5.8 mph9.3 kmh 30.15 in1021.0 mb 0.00 in0.0 mm 0.00 in0.0 mm 0.00 in0.0 mm
12:15 PM 44.8°F7.1°C 33.8°F1.0°C 65% 4.1 mph ESE6.6 kmh ESE 5.8 mph9.3 kmh 30.15 in1021.0 mb 0.00 in0.0 mm 0.00 in0.0 mm 0.00 in0.0 mm
12:10 PM 44.6°F7.0°C 33.2°F0.7°C 64% 2.5 mph E4.0 kmh E 5.1 mph8.2 kmh 30.15 in1021.0 mb 0.00 in0.0 mm 0.00 in0.0 mm 0.00 in0.0 mm
12:05 PM 44.3°F6.8°C 33.6°F0.9°C 66% 0.9 mph S1.4 kmh S 4.7 mph7.6 kmh 30.15 in1021.0 mb 0.00 in0.0 mm 0.00 in0.0 mm 0.00 in0.0 mm
12:00 PM 43.9°F6.6°C 33.3°F0.7°C 66% 3.5 mph ENE5.6 kmh ENE 4.7 mph7.6 kmh 30.15 in1021.0 mb 0.00 in0.0 mm 0.00 in0.0 mm 0.00 in0.0 mm
11:54 AM 43.2°F6.2°C 33.8°F1.0°C 69% 1.0 mph SE1.6 kmh SE 2.7 mph4.3 kmh 30.16 in1021.3 mb 0.00 in0.0 mm 0.00 in0.0 mm 0.00 in0.0 mm
11:49 AM 42.7°F5.9°C 33.7°F0.9°C 70% 1.8 mph ESE2.9 kmh ESE 2.7 mph4.3 kmh 30.16 in1021.3 mb 0.00 in0.0 mm 0.00 in0.0 mm 0.00 in0.0 mm
11:44 AM 41.8°F5.4°C 33.1°F0.6°C 71% 0.2 mph 0.3 kmh 2.7 mph4.3 kmh 30.17 in1021.7 mb 0.00 in0.0 mm 0.00 in0.0 mm 0.00 in0.0 mm
11:39 AM 40.9°F4.9°C 32.2°F0.1°C 71% 0.4 mph S0.6 kmh S 2.7 mph4.3 kmh 30.17 in1021.7 mb 0.00 in0.0 mm 0.00 in0.0 mm 0.00 in0.0 mm
11:34 AM 40.1°F4.5°C 31.8°F-0.1°C 72% 0.9 mph E1.4 kmh E 4.7 mph7.6 kmh 30.17 in1021.7 mb 0.00 in0.0 mm 0.00 in0.0 mm 0.00 in0.0 mm
11:29 AM 40.1°F4.5°C 32.1°F0.1°C 73% 1.5 mph NNW2.4 kmh NNW 5.8 mph9.3 kmh 30.17 in1021.7 mb 0.00 in0.0 mm 0.00 in0.0 mm 0.00 in0.0 mm
11:25 AM 40.1°F4.5°C 32.5°F0.3°C 74% 3.3 mph 5.3 kmh 5.8 mph9.3 kmh 30.17 in1021.7 mb 0.00 in0.0 mm 0.00 in0.0 mm 0.00 in0.0 mm
11:20 AM 40.1°F4.5°C 32.8°F0.4°C 75% 1.6 mph ENE2.6 kmh ENE 4.9 mph7.9 kmh 30.17 in1021.7 mb 0.00 in0.0 mm 0.00 in0.0 mm 0.00 in0.0 mm
11:15 AM 40.0°F4.4°C 32.3°F0.2°C 74% 3.7 mph E6.0 kmh E 3.8 mph6.1 kmh 30.17 in1021.7 mb 0.00 in0.0 mm 0.00 in0.0 mm 0.00 in0.0 mm
11:10 AM 39.6°F4.2°C 32.7°F0.4°C 76% 1.1 mph ENE1.8 kmh ENE 3.4 mph5.5 kmh 30.18 in1022.0 mb 0.00 in0.0 mm 0.00 in0.0 mm 0.00 in0.0 mm
11:05 AM 39.2°F4.0°C 32.9°F0.5°C 78% 1.5 mph NE2.4 kmh NE 3.4 mph5.5 kmh 30.18 in1022.0 mb 0.00 in0.0 mm 0.00 in0.0 mm 0.00 in0.0 mm
11:00 AM 38.7°F3.7°C 32.8°F0.4°C 79% 2.2 mph ESE3.5 kmh ESE 3.4 mph5.5 kmh 30.18 in1022.0 mb 0.00 in0.0 mm 0.00 in0.0 mm 0.00 in0.0 mm
10:54 AM 38.2°F3.4°C 32.0°F0.0°C 78% 1.1 mph SE1.8 kmh SE 2.0 mph3.2 kmh 30.18 in1022.0 mb 0.00 in0.0 mm 0.00 in0.0 mm 0.00 in0.0 mm
10:49 AM 37.4°F3.0°C 31.9°F-0.1°C 80% 1.5 mph SSE2.4 kmh SSE 3.4 mph5.5 kmh 30.18 in1022.0 mb 0.00 in0.0 mm 0.00 in0.0 mm 0.00 in0.0 mm
10:44 AM 36.7°F2.6°C 31.1°F-0.5°C 80% 1.0 mph SE1.6 kmh SE 4.7 mph7.6 kmh 30.19 in1022.4 mb 0.00 in0.0 mm 0.00 in0.0 mm 0.00 in0.0 mm
10:39 AM 36.2°F2.3°C 30.9°F-0.6°C 81% 2.9 mph E4.7 kmh E 5.1 mph8.2 kmh 30.19 in1022.4 mb 0.00 in0.0 mm 0.00 in0.0 mm 0.00 in0.0 mm
10:34 AM 35.5°F1.9°C 30.4°F-0.9°C 82% 3.3 mph ESE5.3 kmh ESE 5.1 mph8.2 kmh 30.19 in1022.4 mb 0.00 in0.0 mm 0.00 in0.0 mm 0.00 in0.0 mm
10:29 AM 34.7°F1.5°C 29.7°F-1.3°C 82% 0.6 mph SE1.0 kmh SE 1.8 mph2.9 kmh 30.20 in1022.7 mb 0.00 in0.0 mm 0.00 in0.0 mm 0.00 in0.0 mm
10:24 AM 34.2°F1.2°C 29.5°F-1.4°C 83% 0.3 mph NNE0.5 kmh NNE 3.1 mph5.0 kmh 30.20 in1022.7 mb 0.00 in0.0 mm 0.00 in0.0 mm 0.00 in0.0 mm
10:19 AM 33.8°F1.0°C 29.2°F-1.6°C 83% 1.6 mph E2.6 kmh E 3.1 mph5.0 kmh 30.21 in1023.0 mb 0.00 in0.0 mm 0.00 in0.0 mm 0.00 in0.0 mm
10:14 AM 33.1°F0.6°C 28.4°F-2.0°C 83% 0.2 mph SSE0.3 kmh SSE 3.1 mph5.0 kmh 30.21 in1023.0 mb 0.00 in0.0 mm 0.00 in0.0 mm 0.00 in0.0 mm
10:09 AM 32.4°F0.2°C 27.8°F-2.3°C 83% 2.3 mph SE3.7 kmh SE 3.1 mph5.0 kmh 30.21 in1023.0 mb 0.00 in0.0 mm 0.00 in0.0 mm 0.00 in0.0 mm
10:04 AM 31.7°F-0.2°C 27.5°F-2.5°C 84% 2.4 mph ESE3.9 kmh ESE 3.1 mph5.0 kmh 30.21 in1023.0 mb 0.00 in0.0 mm 0.00 in0.0 mm 0.00 in0.0 mm
09:59 AM 31.1°F-0.5°C 26.9°F-2.8°C 84% Calm Calm 2.5 mph4.0 kmh 30.21 in1023.0 mb 0.00 in0.0 mm 0.00 in0.0 mm 0.00 in0.0 mm
09:54 AM 30.6°F-0.8°C 26.6°F-3.0°C 85% 0.3 mph E0.5 kmh E 4.7 mph7.6 kmh 30.22 in1023.4 mb 0.00 in0.0 mm 0.00 in0.0 mm 0.00 in0.0 mm
09:49 AM 30.2°F-1.0°C 26.3°F-3.2°C 85% 3.1 mph NE5.0 kmh NE 4.7 mph7.6 kmh 30.22 in1023.4 mb 0.00 in0.0 mm 0.00 in0.0 mm 0.00 in0.0 mm
09:44 AM 29.5°F-1.4°C 25.8°F-3.4°C 86% 2.3 mph ESE3.7 kmh ESE 3.6 mph5.8 kmh 30.22 in1023.4 mb 0.00 in0.0 mm 0.00 in0.0 mm 0.00 in0.0 mm
09:39 AM 29.2°F-1.6°C 25.5°F-3.6°C 86% 2.7 mph E4.3 kmh E 3.6 mph5.8 kmh 30.22 in1023.4 mb 0.00 in0.0 mm 0.00 in0.0 mm 0.00 in0.0 mm
09:34 AM 28.4°F-2.0°C 24.8°F-4.0°C 86% 1.7 mph NE2.7 kmh NE 2.9 mph4.7 kmh 30.23 in1023.7 mb 0.00 in0.0 mm 0.00 in0.0 mm 0.00 in0.0 mm
09:29 AM 27.9°F-2.3°C 23.9°F-4.5°C 85% Calm Calm 3.6 mph5.8 kmh 30.23 in1023.7 mb 0.00 in0.0 mm 0.00 in0.0 mm 0.00 in0.0 mm
09:24 AM 27.5°F-2.5°C 23.6°F-4.7°C 85% 1.7 mph SE2.7 kmh SE 4.0 mph6.4 kmh 30.22 in1023.4 mb 0.00 in0.0 mm 0.00 in0.0 mm 0.00 in0.0 mm
09:19 AM 27.0°F-2.8°C 23.0°F-5.0°C 85% 1.8 mph ESE2.9 kmh ESE 4.0 mph6.4 kmh 30.23 in1023.7 mb 0.00 in0.0 mm 0.00 in0.0 mm 0.00 in0.0 mm
09:14 AM 26.5°F-3.1°C 22.5°F-5.3°C 85% 1.2 mph E1.9 kmh E 3.4 mph5.5 kmh 30.23 in1023.7 mb 0.00 in0.0 mm 0.00 in0.0 mm 0.00 in0.0 mm
09:09 AM 25.9°F-3.4°C 22.0°F-5.6°C 85% 2.3 mph ESE3.7 kmh ESE 4.0 mph6.4 kmh 30.23 in1023.7 mb 0.00 in0.0 mm 0.00 in0.0 mm 0.00 in0.0 mm
09:04 AM 25.6°F-3.6°C 21.7°F-5.7°C 85% 3.5 mph NE5.6 kmh NE 4.5 mph7.2 kmh 30.23 in1023.7 mb 0.00 in0.0 mm 0.00 in0.0 mm 0.00 in0.0 mm
08:58 AM 24.8°F-4.0°C 21.2°F-6.0°C 86% 2.3 mph E3.7 kmh E 4.5 mph7.2 kmh 30.24 in1024.0 mb 0.00 in0.0 mm 0.00 in0.0 mm 0.00 in0.0 mm
08:53 AM 24.5°F-4.2°C 20.9°F-6.2°C 86% 3.3 mph NE5.3 kmh NE 4.0 mph6.4 kmh 30.23 in1023.7 mb 0.00 in0.0 mm 0.00 in0.0 mm 0.00 in0.0 mm
08:48 AM 24.1°F-4.4°C 20.5°F-6.4°C 86% 2.4 mph E3.9 kmh E 4.0 mph6.4 kmh 30.24 in1024.0 mb 0.00 in0.0 mm 0.00 in0.0 mm 0.00 in0.0 mm
08:43 AM 23.6°F-4.7°C 20.0°F-6.7°C 86% 3.5 mph E5.6 kmh E 4.0 mph6.4 kmh 30.24 in1024.0 mb 0.00 in0.0 mm 0.00 in0.0 mm 0.00 in0.0 mm
08:38 AM 23.0°F-5.0°C 19.4°F-7.0°C 86% 1.8 mph E2.9 kmh E 3.4 mph5.5 kmh 30.25 in1024.4 mb 0.00 in0.0 mm 0.00 in0.0 mm 0.00 in0.0 mm
08:33 AM 22.7°F-5.2°C 18.8°F-7.3°C 85% 2.2 mph E3.5 kmh E 3.4 mph5.5 kmh 30.24 in1024.0 mb 0.00 in0.0 mm 0.00 in0.0 mm 0.00 in0.0 mm
08:28 AM 22.1°F-5.5°C 18.3°F-7.6°C 85% 1.9 mph E3.1 kmh E 2.9 mph4.7 kmh 30.24 in1024.0 mb 0.00 in0.0 mm 0.00 in0.0 mm 0.00 in0.0 mm
08:23 AM 21.6°F-5.8°C 17.7°F-7.9°C 85% 1.5 mph ENE2.4 kmh ENE 2.9 mph4.7 kmh 30.24 in1024.0 mb 0.00 in0.0 mm 0.00 in0.0 mm 0.00 in0.0 mm
08:19 AM 21.2°F-6.0°C 17.4°F-8.1°C 85% 2.3 mph E3.7 kmh E 4.9 mph7.9 kmh 30.24 in1024.0 mb 0.00 in0.0 mm 0.00 in0.0 mm 0.00 in0.0 mm
08:14 AM 20.5°F-6.4°C 16.7°F-8.5°C 85% 3.2 mph E5.1 kmh E 4.9 mph7.9 kmh 30.23 in1023.7 mb 0.00 in0.0 mm 0.00 in0.0 mm 0.00 in0.0 mm
08:09 AM 19.8°F-6.8°C 15.9°F-8.9°C 85% 2.9 mph E4.7 kmh E 3.4 mph5.5 kmh 30.24 in1024.0 mb 0.00 in0.0 mm 0.00 in0.0 mm 0.00 in0.0 mm
08:04 AM 19.1°F-7.2°C 14.9°F-9.5°C 84% 1.5 mph ENE2.4 kmh ENE 3.4 mph5.5 kmh 30.24 in1024.0 mb 0.00 in0.0 mm 0.00 in0.0 mm 0.00 in0.0 mm
07:58 AM 18.2°F-7.7°C 14.3°F-9.8°C 85% 3.0 mph NNE4.8 kmh NNE 3.4 mph5.5 kmh 30.24 in1024.0 mb 0.00 in0.0 mm 0.00 in0.0 mm 0.00 in0.0 mm
07:53 AM 17.5°F-8.1°C 13.6°F-10.2°C 85% 1.5 mph ENE2.4 kmh ENE 3.4 mph5.5 kmh 30.24 in1024.0 mb 0.00 in0.0 mm 0.00 in0.0 mm 0.00 in0.0 mm
07:48 AM 16.6°F-8.6°C 12.8°F-10.7°C 85% 2.3 mph ENE3.7 kmh ENE 3.4 mph5.5 kmh 30.24 in1024.0 mb 0.00 in0.0 mm 0.00 in0.0 mm 0.00 in0.0 mm
07:43 AM 15.8°F-9.0°C 12.1°F-11.1°C 85% 1.3 mph ENE2.1 kmh ENE 2.2 mph3.5 kmh 30.24 in1024.0 mb 0.00 in0.0 mm 0.00 in0.0 mm 0.00 in0.0 mm
07:38 AM 14.9°F-9.5°C 11.0°F-11.7°C 84% 0.9 mph ENE1.4 kmh ENE 1.1 mph1.8 kmh 30.24 in1024.0 mb 0.00 in0.0 mm 0.00 in0.0 mm 0.00 in0.0 mm
07:33 AM 14.2°F-9.9°C 10.3°F-12.1°C 84% 0.4 mph ENE0.6 kmh ENE 1.1 mph1.8 kmh 30.24 in1024.0 mb 0.00 in0.0 mm 0.00 in0.0 mm 0.00 in0.0 mm
07:28 AM 13.7°F-10.2°C 9.7°F-12.4°C 84% Calm Calm -- 30.24 in1024.0 mb 0.00 in0.0 mm 0.00 in0.0 mm 0.00 in0.0 mm
07:23 AM 13.3°F-10.4°C 9.4°F-12.6°C 84% Calm Calm -- 30.24 in1024.0 mb 0.00 in0.0 mm 0.00 in0.0 mm 0.00 in0.0 mm
07:18 AM 12.8°F-10.7°C 8.3°F-13.2°C 82% Calm Calm -- 30.23 in1023.7 mb 0.00 in0.0 mm 0.00 in0.0 mm 0.00 in0.0 mm
07:13 AM 12.8°F-10.7°C 8.3°F-13.2°C 82% Calm Calm -- 30.23 in1023.7 mb 0.00 in0.0 mm 0.00 in0.0 mm 0.00 in0.0 mm
07:08 AM 12.8°F-10.7°C 8.3°F-13.2°C 82% Calm Calm -- 30.23 in1023.7 mb 0.00 in0.0 mm 0.00 in0.0 mm 0.00 in0.0 mm
07:03 AM 13.0°F-10.6°C 8.5°F-13.1°C 82% Calm Calm 1.1 mph1.8 kmh 30.23 in1023.7 mb 0.00 in0.0 mm 0.00 in0.0 mm 0.00 in0.0 mm
06:58 AM 13.1°F-10.5°C 8.9°F-12.8°C 83% Calm Calm 2.7 mph4.3 kmh 30.23 in1023.7 mb 0.00 in0.0 mm 0.00 in0.0 mm 0.00 in0.0 mm
06:53 AM 12.8°F-10.7°C 8.3°F-13.2°C 82% 1.4 mph NE2.3 kmh NE 3.4 mph5.5 kmh 30.23 in1023.7 mb 0.00 in0.0 mm 0.00 in0.0 mm 0.00 in0.0 mm
06:48 AM 12.4°F-10.9°C 7.9°F-13.4°C 82% 3.2 mph NNE5.1 kmh NNE 3.4 mph5.5 kmh 30.23 in1023.7 mb 0.00 in0.0 mm 0.00 in0.0 mm 0.00 in0.0 mm
06:43 AM 12.2°F-11.0°C 7.7°F-13.5°C 82% 0.8 mph NNE1.3 kmh NNE 3.1 mph5.0 kmh 30.23 in1023.7 mb 0.00 in0.0 mm 0.00 in0.0 mm 0.00 in0.0 mm
06:38 AM 12.6°F-10.8°C 8.1°F-13.3°C 82% 1.2 mph 1.9 kmh 3.4 mph5.5 kmh 30.22 in1023.4 mb 0.00 in0.0 mm 0.00 in0.0 mm 0.00 in0.0 mm
06:33 AM 13.0°F-10.6°C 8.5°F-13.1°C 82% 2.0 mph 3.2 kmh 3.4 mph5.5 kmh 30.22 in1023.4 mb 0.00 in0.0 mm 0.00 in0.0 mm 0.00 in0.0 mm
06:28 AM 12.6°F-10.8°C 8.1°F-13.3°C 82% 2.3 mph NE3.7 kmh NE 3.4 mph5.5 kmh 30.22 in1023.4 mb 0.00 in0.0 mm 0.00 in0.0 mm 0.00 in0.0 mm
06:23 AM 12.6°F-10.8°C 8.1°F-13.3°C 82% 1.5 mph N2.4 kmh N 2.7 mph4.3 kmh 30.22 in1023.4 mb 0.00 in0.0 mm 0.00 in0.0 mm 0.00 in0.0 mm
06:18 AM 13.0°F-10.6°C 8.5°F-13.1°C 82% 1.0 mph 1.6 kmh 2.7 mph4.3 kmh 30.22 in1023.4 mb 0.00 in0.0 mm 0.00 in0.0 mm 0.00 in0.0 mm
06:13 AM 13.3°F-10.4°C 9.1°F-12.7°C 83% 1.6 mph 2.6 kmh 1.6 mph2.6 kmh 30.23 in1023.7 mb 0.00 in0.0 mm 0.00 in0.0 mm 0.00 in0.0 mm
06:08 AM 13.5°F-10.3°C 9.3°F-12.6°C 83% 0.2 mph 0.3 kmh 1.1 mph1.8 kmh 30.23 in1023.7 mb 0.00 in0.0 mm 0.00 in0.0 mm 0.00 in0.0 mm
06:03 AM 13.5°F-10.3°C 9.3°F-12.6°C 83% 0.8 mph ENE1.3 kmh ENE 1.3 mph2.1 kmh 30.23 in1023.7 mb 0.00 in0.0 mm 0.00 in0.0 mm 0.00 in0.0 mm
05:58 AM 13.7°F-10.2°C 9.5°F-12.5°C 83% Calm Calm 2.7 mph4.3 kmh 30.23 in1023.7 mb 0.00 in0.0 mm 0.00 in0.0 mm 0.00 in0.0 mm
05:53 AM 13.7°F-10.2°C 9.5°F-12.5°C 83% 0.4 mph NE0.6 kmh NE 3.4 mph5.5 kmh 30.22 in1023.4 mb 0.00 in0.0 mm 0.00 in0.0 mm 0.00 in0.0 mm
05:48 AM 13.5°F-10.3°C 9.3°F-12.6°C 83% 3.0 mph NE4.8 kmh NE 4.5 mph7.2 kmh 30.21 in1023.0 mb 0.00 in0.0 mm 0.00 in0.0 mm 0.00 in0.0 mm
05:43 AM 13.3°F-10.4°C 9.1°F-12.7°C 83% 2.3 mph NNE3.7 kmh NNE 4.5 mph7.2 kmh 30.22 in1023.4 mb 0.00 in0.0 mm 0.00 in0.0 mm 0.00 in0.0 mm
05:38 AM 12.8°F-10.7°C 8.0°F-13.3°C 81% 3.5 mph NNE5.6 kmh NNE 3.6 mph5.8 kmh 30.22 in1023.4 mb 0.00 in0.0 mm 0.00 in0.0 mm 0.00 in0.0 mm
05:33 AM 13.3°F-10.4°C 8.8°F-12.9°C 82% 2.8 mph 4.5 kmh 3.4 mph5.5 kmh 30.22 in1023.4 mb 0.00 in0.0 mm 0.00 in0.0 mm 0.00 in0.0 mm
05:28 AM 14.0°F-10.0°C 9.5°F-12.5°C 82% 0.6 mph 1.0 kmh 4.3 mph6.9 kmh 30.22 in1023.4 mb 0.00 in0.0 mm 0.00 in0.0 mm 0.00 in0.0 mm
05:23 AM 14.4°F-9.8°C 9.9°F-12.3°C 82% 2.1 mph 3.4 kmh 4.7 mph7.6 kmh 30.22 in1023.4 mb 0.00 in0.0 mm 0.00 in0.0 mm 0.00 in0.0 mm
05:18 AM 14.4°F-9.8°C 10.2°F-12.1°C 83% 4.6 mph NE7.4 kmh NE 4.7 mph7.6 kmh 30.21 in1023.0 mb 0.00 in0.0 mm 0.00 in0.0 mm 0.00 in0.0 mm
05:13 AM 14.2°F-9.9°C 9.7°F-12.4°C 82% 4.1 mph NE6.6 kmh NE 4.7 mph7.6 kmh 30.22 in1023.4 mb 0.00 in0.0 mm 0.00 in0.0 mm 0.00 in0.0 mm
05:08 AM 14.2°F-9.9°C 9.7°F-12.4°C 82% 2.7 mph ENE4.3 kmh ENE 3.4 mph5.5 kmh 30.22 in1023.4 mb 0.00 in0.0 mm 0.00 in0.0 mm 0.00 in0.0 mm
05:03 AM 14.0°F-10.0°C 9.5°F-12.5°C 82% 0.9 mph N1.4 kmh N 2.2 mph3.5 kmh 30.22 in1023.4 mb 0.00 in0.0 mm 0.00 in0.0 mm 0.00 in0.0 mm
04:57 AM 14.2°F-9.9°C 9.7°F-12.4°C 82% 1.1 mph 1.8 kmh 2.5 mph4.0 kmh 30.22 in1023.4 mb 0.00 in0.0 mm 0.00 in0.0 mm 0.00 in0.0 mm
04:52 AM 14.4°F-9.8°C 9.9°F-12.3°C 82% 0.9 mph NE1.4 kmh NE 3.4 mph5.5 kmh 30.22 in1023.4 mb 0.00 in0.0 mm 0.00 in0.0 mm 0.00 in0.0 mm
04:47 AM 14.4°F-9.8°C 9.9°F-12.3°C 82% 2.3 mph N3.7 kmh N 3.4 mph5.5 kmh 30.22 in1023.4 mb 0.00 in0.0 mm 0.00 in0.0 mm 0.00 in0.0 mm
04:42 AM 14.4°F-9.8°C 9.9°F-12.3°C 82% 1.9 mph NE3.1 kmh NE 4.0 mph6.4 kmh 30.22 in1023.4 mb 0.00 in0.0 mm 0.00 in0.0 mm 0.00 in0.0 mm
04:37 AM 14.2°F-9.9°C 9.7°F-12.4°C 82% 3.3 mph NNE5.3 kmh NNE 4.0 mph6.4 kmh 30.22 in1023.4 mb 0.00 in0.0 mm 0.00 in0.0 mm 0.00 in0.0 mm
04:33 AM 14.0°F-10.0°C 9.3°F-12.6°C 81% 4.0 mph 6.4 kmh 4.0 mph6.4 kmh 30.22 in1023.4 mb 0.00 in0.0 mm 0.00 in0.0 mm 0.00 in0.0 mm
04:28 AM 14.6°F-9.7°C 9.8°F-12.3°C 81% 1.0 mph ENE1.6 kmh ENE 1.8 mph2.9 kmh 30.22 in1023.4 mb 0.00 in0.0 mm 0.00 in0.0 mm 0.00 in0.0 mm
04:23 AM 14.8°F-9.6°C 10.0°F-12.2°C 81% 0.7 mph NNE1.1 kmh NNE 1.8 mph2.9 kmh 30.22 in1023.4 mb 0.00 in0.0 mm 0.00 in0.0 mm 0.00 in0.0 mm
04:18 AM 15.1°F-9.4°C 10.4°F-12.0°C 81% Calm Calm 1.1 mph1.8 kmh 30.21 in1023.0 mb 0.00 in0.0 mm 0.00 in0.0 mm 0.00 in0.0 mm
04:13 AM 15.3°F-9.3°C 10.5°F-11.9°C 81% 0.7 mph ENE1.1 kmh ENE 1.1 mph1.8 kmh 30.21 in1023.0 mb 0.00 in0.0 mm 0.00 in0.0 mm 0.00 in0.0 mm
04:08 AM 15.5°F-9.2°C 10.7°F-11.8°C 81% 0.2 mph NE0.3 kmh NE 2.0 mph3.2 kmh 30.22 in1023.4 mb 0.00 in0.0 mm 0.00 in0.0 mm 0.00 in0.0 mm
04:03 AM 15.8°F-9.0°C 11.1°F-11.6°C 81% 0.4 mph 0.6 kmh 2.7 mph4.3 kmh 30.22 in1023.4 mb 0.00 in0.0 mm 0.00 in0.0 mm 0.00 in0.0 mm
03:57 AM 16.0°F-8.9°C 11.3°F-11.5°C 81% 1.7 mph 2.7 kmh 2.7 mph4.3 kmh 30.22 in1023.4 mb 0.00 in0.0 mm 0.00 in0.0 mm 0.00 in0.0 mm
03:52 AM 16.4°F-8.7°C 11.5°F-11.4°C 81% 1.6 mph 2.6 kmh 2.7 mph4.3 kmh 30.22 in1023.4 mb 0.00 in0.0 mm 0.00 in0.0 mm 0.00 in0.0 mm
03:47 AM 16.6°F-8.6°C 12.0°F-11.1°C 82% 2.0 mph ENE3.2 kmh ENE 2.7 mph4.3 kmh 30.22 in1023.4 mb 0.00 in0.0 mm 0.00 in0.0 mm 0.00 in0.0 mm
03:42 AM 16.7°F-8.5°C 11.9°F-11.2°C 81% 1.8 mph E2.9 kmh E 3.1 mph5.0 kmh 30.22 in1023.4 mb 0.00 in0.0 mm 0.00 in0.0 mm 0.00 in0.0 mm
03:37 AM 16.9°F-8.4°C 12.3°F-10.9°C 82% 1.2 mph ENE1.9 kmh ENE 3.1 mph5.0 kmh 30.22 in1023.4 mb 0.00 in0.0 mm 0.00 in0.0 mm 0.00 in0.0 mm
03:32 AM 17.1°F-8.3°C 12.4°F-10.9°C 82% 2.5 mph E4.0 kmh E 3.1 mph5.0 kmh 30.22 in1023.4 mb 0.00 in0.0 mm 0.00 in0.0 mm 0.00 in0.0 mm
03:27 AM 16.9°F-8.4°C 12.3°F-10.9°C 82% 2.7 mph ENE4.3 kmh ENE 3.4 mph5.5 kmh 30.22 in1023.4 mb 0.00 in0.0 mm 0.00 in0.0 mm 0.00 in0.0 mm
03:22 AM 16.9°F-8.4°C 12.3°F-10.9°C 82% 2.5 mph ENE4.0 kmh ENE 4.0 mph6.4 kmh 30.23 in1023.7 mb 0.00 in0.0 mm 0.00 in0.0 mm 0.00 in0.0 mm
03:17 AM 16.9°F-8.4°C 12.1°F-11.1°C 81% 3.7 mph NE6.0 kmh NE 4.9 mph7.9 kmh 30.23 in1023.7 mb 0.00 in0.0 mm 0.00 in0.0 mm 0.00 in0.0 mm
03:12 AM 16.9°F-8.4°C 12.1°F-11.1°C 81% 4.1 mph ENE6.6 kmh ENE 5.4 mph8.7 kmh 30.22 in1023.4 mb 0.00 in0.0 mm 0.00 in0.0 mm 0.00 in0.0 mm
03:07 AM 16.9°F-8.4°C 12.1°F-11.1°C 81% 5.2 mph NE8.4 kmh NE 5.4 mph8.7 kmh 30.23 in1023.7 mb 0.00 in0.0 mm 0.00 in0.0 mm 0.00 in0.0 mm
03:02 AM 17.1°F-8.3°C 12.3°F-10.9°C 81% 2.5 mph NNE4.0 kmh NNE 2.5 mph4.0 kmh 30.23 in1023.7 mb 0.00 in0.0 mm 0.00 in0.0 mm 0.00 in0.0 mm
02:57 AM 17.1°F-8.3°C 12.3°F-10.9°C 81% 1.1 mph NNE1.8 kmh NNE 3.6 mph5.8 kmh 30.23 in1023.7 mb 0.00 in0.0 mm 0.00 in0.0 mm 0.00 in0.0 mm
02:52 AM 17.1°F-8.3°C 12.3°F-10.9°C 81% 2.5 mph NE4.0 kmh NE 3.6 mph5.8 kmh 30.23 in1023.7 mb 0.00 in0.0 mm 0.00 in0.0 mm 0.00 in0.0 mm
02:47 AM 17.1°F-8.3°C 12.3°F-10.9°C 81% 2.7 mph NNE4.3 kmh NNE 4.0 mph6.4 kmh 30.23 in1023.7 mb 0.00 in0.0 mm 0.00 in0.0 mm 0.00 in0.0 mm
02:42 AM 16.9°F-8.4°C 12.1°F-11.1°C 81% 3.8 mph NE6.1 kmh NE 4.0 mph6.4 kmh 30.23 in1023.7 mb 0.00 in0.0 mm 0.00 in0.0 mm 0.00 in0.0 mm
02:37 AM 16.9°F-8.4°C 12.1°F-11.1°C 81% 2.5 mph NE4.0 kmh NE 2.7 mph4.3 kmh 30.23 in1023.7 mb 0.00 in0.0 mm 0.00 in0.0 mm 0.00 in0.0 mm
02:32 AM 16.9°F-8.4°C 12.1°F-11.1°C 81% 1.9 mph NE3.1 kmh NE 3.1 mph5.0 kmh 30.23 in1023.7 mb 0.00 in0.0 mm 0.00 in0.0 mm 0.00 in0.0 mm
02:27 AM 17.1°F-8.3°C 12.3°F-10.9°C 81% 3.1 mph NNE5.0 kmh NNE 3.1 mph5.0 kmh 30.23 in1023.7 mb 0.00 in0.0 mm 0.00 in0.0 mm 0.00 in0.0 mm
02:22 AM 17.1°F-8.3°C 12.3°F-10.9°C 81% 1.9 mph NNE3.1 kmh NNE 2.5 mph4.0 kmh 30.23 in1023.7 mb 0.00 in0.0 mm 0.00 in0.0 mm 0.00 in0.0 mm
02:17 AM 17.1°F-8.3°C 12.3°F-10.9°C 81% 1.0 mph NNE1.6 kmh NNE 1.6 mph2.6 kmh 30.23 in1023.7 mb 0.00 in0.0 mm 0.00 in0.0 mm 0.00 in0.0 mm
02:12 AM 17.1°F-8.3°C 12.3°F-10.9°C 81% 1.6 mph NE2.6 kmh NE 2.9 mph4.7 kmh 30.24 in1024.0 mb 0.00 in0.0 mm 0.00 in0.0 mm 0.00 in0.0 mm
02:07 AM 17.3°F-8.2°C 12.1°F-11.1°C 80% 2.1 mph NE3.4 kmh NE 2.9 mph4.7 kmh 30.24 in1024.0 mb 0.00 in0.0 mm 0.00 in0.0 mm 0.00 in0.0 mm
02:02 AM 17.5°F-8.1°C 12.2°F-11.0°C 80% 2.9 mph NNE4.7 kmh NNE 2.9 mph4.7 kmh 30.24 in1024.0 mb 0.00 in0.0 mm 0.00 in0.0 mm 0.00 in0.0 mm
01:57 AM 17.3°F-8.2°C 12.1°F-11.1°C 80% 1.3 mph NNE2.1 kmh NNE 2.9 mph4.7 kmh 30.24 in1024.0 mb 0.00 in0.0 mm 0.00 in0.0 mm 0.00 in0.0 mm
01:52 AM 17.1°F-8.3°C 12.0°F-11.1°C 80% 0.6 mph NNE1.0 kmh NNE 1.1 mph1.8 kmh 30.24 in1024.0 mb 0.00 in0.0 mm 0.00 in0.0 mm 0.00 in0.0 mm
01:47 AM 17.1°F-8.3°C 12.0°F-11.1°C 80% Calm Calm -- 30.24 in1024.0 mb 0.00 in0.0 mm 0.00 in0.0 mm 0.00 in0.0 mm
01:42 AM 17.1°F-8.3°C 12.0°F-11.1°C 80% Calm Calm 0.9 mph1.4 kmh 30.24 in1024.0 mb 0.00 in0.0 mm 0.00 in0.0 mm 0.00 in0.0 mm
01:37 AM 17.1°F-8.3°C 12.0°F-11.1°C 80% 0.5 mph 0.8 kmh 1.6 mph2.6 kmh 30.25 in1024.4 mb 0.00 in0.0 mm 0.00 in0.0 mm 0.00 in0.0 mm
01:32 AM 17.3°F-8.2°C 12.1°F-11.1°C 80% 1.2 mph 1.9 kmh 1.6 mph2.6 kmh 30.25 in1024.4 mb 0.00 in0.0 mm 0.00 in0.0 mm 0.00 in0.0 mm
01:27 AM 17.5°F-8.1°C 12.2°F-11.0°C 80% 0.2 mph 0.3 kmh 2.7 mph4.3 kmh 30.25 in1024.4 mb 0.00 in0.0 mm 0.00 in0.0 mm 0.00 in0.0 mm
01:22 AM 17.5°F-8.1°C 12.2°F-11.0°C 80% 2.3 mph N3.7 kmh N 2.7 mph4.3 kmh 30.25 in1024.4 mb 0.00 in0.0 mm 0.00 in0.0 mm 0.00 in0.0 mm
01:17 AM 17.5°F-8.1°C 12.0°F-11.1°C 79% 1.0 mph 1.6 kmh 2.2 mph3.5 kmh 30.25 in1024.4 mb 0.00 in0.0 mm 0.00 in0.0 mm 0.00 in0.0 mm
01:11 AM 17.3°F-8.2°C 11.8°F-11.2°C 79% 1.9 mph 3.1 kmh 2.2 mph3.5 kmh 30.25 in1024.4 mb 0.00 in0.0 mm 0.00 in0.0 mm 0.00 in0.0 mm
01:06 AM 17.3°F-8.2°C 11.8°F-11.2°C 79% 2.0 mph NNE3.2 kmh NNE 4.5 mph7.2 kmh 30.25 in1024.4 mb 0.00 in0.0 mm 0.00 in0.0 mm 0.00 in0.0 mm
01:01 AM 17.5°F-8.1°C 12.0°F-11.1°C 79% 2.0 mph NNE3.2 kmh NNE 4.5 mph7.2 kmh 30.25 in1024.4 mb 0.00 in0.0 mm 0.00 in0.0 mm 0.00 in0.0 mm
12:57 AM 17.5°F-8.1°C 12.0°F-11.1°C 79% 4.5 mph 7.2 kmh 4.5 mph7.2 kmh 30.25 in1024.4 mb 0.00 in0.0 mm 0.00 in0.0 mm 0.00 in0.0 mm
12:52 AM 17.3°F-8.2°C 11.8°F-11.2°C 79% 3.3 mph 5.3 kmh 3.8 mph6.1 kmh 30.25 in1024.4 mb 0.00 in0.0 mm 0.00 in0.0 mm 0.00 in0.0 mm
12:47 AM 17.3°F-8.2°C 12.1°F-11.1°C 80% Calm Calm 2.0 mph3.2 kmh 30.25 in1024.4 mb 0.00 in0.0 mm 0.00 in0.0 mm 0.00 in0.0 mm
12:42 AM 17.3°F-8.2°C 12.1°F-11.1°C 80% 0.4 mph 0.6 kmh 2.0 mph3.2 kmh 30.25 in1024.4 mb 0.00 in0.0 mm 0.00 in0.0 mm 0.00 in0.0 mm
12:37 AM 17.6°F-8.0°C 12.4°F-10.9°C 80% 1.5 mph NNE2.4 kmh NNE 3.4 mph5.5 kmh 30.26 in1024.7 mb 0.00 in0.0 mm 0.00 in0.0 mm 0.00 in0.0 mm
12:32 AM 17.6°F-8.0°C 12.4°F-10.9°C 80% 2.9 mph NNE4.7 kmh NNE 3.6 mph5.8 kmh 30.25 in1024.4 mb 0.00 in0.0 mm 0.00 in0.0 mm 0.00 in0.0 mm
12:27 AM 17.3°F-8.2°C 11.8°F-11.2°C 79% 3.6 mph 5.8 kmh 3.6 mph5.8 kmh 30.26 in1024.7 mb 0.00 in0.0 mm 0.00 in0.0 mm 0.00 in0.0 mm
12:22 AM 17.3°F-8.2°C 11.8°F-11.2°C 79% 2.2 mph 3.5 kmh 2.5 mph4.0 kmh 30.26 in1024.7 mb 0.00 in0.0 mm 0.00 in0.0 mm 0.00 in0.0 mm
12:17 AM 17.3°F-8.2°C 11.8°F-11.2°C 79% 1.5 mph 2.4 kmh 2.2 mph3.5 kmh 30.26 in1024.7 mb 0.00 in0.0 mm 0.00 in0.0 mm 0.00 in0.0 mm
12:12 AM 17.5°F-8.1°C 12.0°F-11.1°C 79% 1.0 mph 1.6 kmh 1.6 mph2.6 kmh 30.26 in1024.7 mb 0.00 in0.0 mm 0.00 in0.0 mm 0.00 in0.0 mm
12:07 AM 17.6°F-8.0°C 12.2°F-11.0°C 79% Calm Calm -- 30.26 in1024.7 mb 0.00 in0.0 mm 0.00 in0.0 mm 0.00 in0.0 mm
12:02 AM 18.0°F-7.8°C 12.5°F-10.8°C 79% Calm Calm -- 30.26 in1024.7 mb 0.00 in0.0 mm 0.00 in0.0 mm 0.00 in0.0 mm